createdAt,value
2023-03-01T00:01:12.519Z,2.25
2023-03-01T00:03:59.219Z,2.33
2023-03-01T00:06:47.001Z,2.36
2023-03-01T00:09:32.305Z,2.27
2023-03-01T00:12:17.777Z,2.25
2023-03-01T00:15:05.740Z,2.19
2023-03-01T00:17:51.338Z,2.12
2023-03-01T00:20:36.675Z,2.10
2023-03-01T00:23:23.446Z,2.12
2023-03-01T00:26:12.037Z,2.08
2023-03-01T00:29:00.279Z,2.04
2023-03-01T00:31:45.440Z,1.97
2023-03-01T00:34:30.979Z,1.98
2023-03-01T00:37:16.067Z,1.99
2023-03-01T00:40:01.120Z,1.90
2023-03-01T00:42:46.430Z,1.87
2023-03-01T00:45:32.271Z,1.84
2023-03-01T00:48:17.900Z,1.82
2023-03-01T00:51:12.559Z,1.77
2023-03-01T00:54:00.650Z,1.69
2023-03-01T00:56:46.053Z,1.72
2023-03-01T00:59:31.879Z,1.74
2023-03-01T01:02:18.386Z,1.70
2023-03-01T01:05:04.187Z,1.72
2023-03-01T01:07:49.592Z,1.74
2023-03-01T01:10:35.894Z,1.71
2023-03-01T01:13:21.467Z,1.61
2023-03-01T01:16:08.115Z,1.48
2023-03-01T01:18:53.813Z,1.48
2023-03-01T01:21:39.316Z,1.39
2023-03-01T01:24:24.785Z,1.40
2023-03-01T01:27:10.153Z,1.43
2023-03-01T01:29:55.674Z,1.41
2023-03-01T01:32:40.883Z,1.38
2023-03-01T01:35:26.384Z,1.32
2023-03-01T01:38:11.455Z,1.27
2023-03-01T01:40:56.999Z,1.17
2023-03-01T01:43:48.775Z,1.12
2023-03-01T01:46:36.671Z,1.11
2023-03-01T01:49:25.030Z,1.12
2023-03-01T01:52:36.743Z,1.11
2023-03-01T01:55:28.473Z,1.11
2023-03-01T01:58:16.989Z,1.12
2023-03-01T02:01:03.705Z,1.15
2023-03-01T02:03:49.551Z,1.16
2023-03-01T02:06:40.604Z,1.16
2023-03-01T02:09:26.470Z,1.13
2023-03-01T02:12:12.058Z,1.16
2023-03-01T02:14:57.436Z,1.25
2023-03-01T02:17:43.351Z,1.29
2023-03-01T02:20:31.950Z,1.34
2023-03-01T02:23:17.678Z,1.27
2023-03-01T02:26:08.389Z,1.25
2023-03-01T02:28:54.074Z,1.18
2023-03-01T02:31:45.948Z,1.23
2023-03-01T02:34:33.290Z,1.26
2023-03-01T02:37:25.539Z,1.28
2023-03-01T02:40:18.326Z,1.28
2023-03-01T02:43:09.471Z,1.31
2023-03-01T02:45:59.389Z,1.24
2023-03-01T02:48:48.198Z,1.21
2023-03-01T02:51:53.622Z,1.26
2023-03-01T02:54:55.208Z,1.31
2023-03-01T02:57:45.053Z,1.37
2023-03-01T03:00:50.832Z,1.42
2023-03-01T03:03:36.661Z,1.43
2023-03-01T03:06:34.444Z,1.40
2023-03-01T03:09:30.227Z,1.37
2023-03-01T03:12:15.772Z,1.32
2023-03-01T03:15:01.134Z,1.34
2023-03-01T03:17:46.583Z,1.33
2023-03-01T03:20:32.831Z,1.37
2023-03-01T03:23:18.261Z,1.38
2023-03-01T03:26:05.077Z,1.34
2023-03-01T03:28:50.502Z,1.31
2023-03-01T03:31:36.068Z,1.23
2023-03-01T03:34:21.219Z,1.20
2023-03-01T03:37:26.564Z,1.26
2023-03-01T03:40:16.300Z,1.31
2023-03-01T03:43:03.831Z,1.30
2023-03-01T03:45:50.815Z,1.26
2023-03-01T03:48:38.633Z,1.27
2023-03-01T03:51:23.837Z,1.30
2023-03-01T03:54:09.038Z,1.34
2023-03-01T03:56:54.467Z,1.37
2023-03-01T03:59:39.828Z,1.39
2023-03-01T04:02:25.389Z,1.41
2023-03-01T04:05:12.506Z,1.37
2023-03-01T04:08:04.402Z,1.40
2023-03-01T04:10:52.576Z,1.40
2023-03-01T04:13:37.998Z,1.33
2023-03-01T04:16:23.555Z,1.15
2023-03-01T04:19:10.424Z,1.11
2023-03-01T04:21:56.003Z,1.06
2023-03-01T04:24:41.517Z,1.07
2023-03-01T04:27:26.647Z,1.13
2023-03-01T04:30:12.441Z,1.18
2023-03-01T04:32:57.749Z,1.19
2023-03-01T04:35:43.283Z,1.17
2023-03-01T04:38:28.574Z,1.23
2023-03-01T04:41:14.943Z,1.28
2023-03-01T04:44:01.090Z,1.30
2023-03-01T04:46:46.210Z,1.33
2023-03-01T04:49:32.191Z,1.32
2023-03-01T04:52:18.050Z,1.30
2023-03-01T04:55:04.590Z,1.13
2023-03-01T04:57:49.754Z,0.98
2023-03-01T05:00:35.139Z,0.89
2023-03-01T05:03:21.260Z,0.83
2023-03-01T05:06:06.582Z,0.86
2023-03-01T05:08:51.622Z,0.96
2023-03-01T05:11:37.057Z,1.06
2023-03-01T05:14:22.781Z,1.10
2023-03-01T05:17:08.233Z,1.02
2023-03-01T05:19:53.378Z,0.94
2023-03-01T05:22:39.418Z,0.87
2023-03-01T05:25:24.968Z,0.87
2023-03-01T05:28:14.106Z,0.89
2023-03-01T05:30:59.393Z,0.84
2023-03-01T05:33:44.681Z,0.85
2023-03-01T05:36:30.258Z,0.84
2023-03-01T05:39:15.564Z,0.81
2023-03-01T05:42:02.348Z,0.85
2023-03-01T05:44:47.765Z,0.84
2023-03-01T05:47:33.121Z,0.84
2023-03-01T05:50:23.915Z,0.91
2023-03-01T05:53:18.441Z,0.91
2023-03-01T05:56:05.073Z,0.84
2023-03-01T05:58:50.752Z,0.82
2023-03-01T06:01:36.838Z,0.81
2023-03-01T06:04:22.235Z,0.78
2023-03-01T06:07:07.747Z,0.78
2023-03-01T06:09:53.220Z,0.81
2023-03-01T06:12:40.301Z,0.82
2023-03-01T06:15:26.288Z,0.83
2023-03-01T06:18:11.706Z,0.83
2023-03-01T06:20:57.451Z,0.79
2023-03-01T06:23:42.640Z,0.76
2023-03-01T06:26:27.710Z,0.84
2023-03-01T06:29:12.875Z,1.00
2023-03-01T06:31:58.403Z,1.12
2023-03-01T06:34:43.695Z,1.25
2023-03-01T06:37:29.168Z,1.36
2023-03-01T06:40:15.970Z,1.40
2023-03-01T06:43:01.826Z,1.41
2023-03-01T06:45:47.149Z,1.41
2023-03-01T06:48:32.487Z,1.32
2023-03-01T06:51:18.183Z,1.24
2023-03-01T06:54:05.114Z,1.21
2023-03-01T06:56:51.095Z,1.17
2023-03-01T06:59:36.561Z,1.20
2023-03-01T07:02:22.126Z,1.26
2023-03-01T07:05:07.702Z,1.34
2023-03-01T07:07:54.708Z,1.43
2023-03-01T07:10:39.916Z,1.48
2023-03-01T07:13:25.770Z,1.52
2023-03-01T07:16:11.211Z,1.64
2023-03-01T07:18:56.894Z,1.94
2023-03-01T07:21:42.664Z,2.18
2023-03-01T07:24:27.902Z,2.26
2023-03-01T07:27:13.205Z,2.32
2023-03-01T07:29:58.592Z,2.55
2023-03-01T07:32:44.258Z,2.57
2023-03-01T07:35:29.377Z,2.50
2023-03-01T07:38:14.590Z,2.51
2023-03-01T07:41:01.855Z,2.55
2023-03-01T07:43:47.346Z,2.61
2023-03-01T07:46:33.495Z,2.67
2023-03-01T07:49:18.672Z,2.76
2023-03-01T07:52:04.081Z,2.83
2023-03-01T07:54:49.241Z,2.91
2023-03-01T07:57:34.609Z,2.98
2023-03-01T08:00:20.412Z,3.06
2023-03-01T08:03:05.870Z,3.55
2023-03-01T08:05:51.250Z,3.83
2023-03-01T08:08:37.310Z,3.81
2023-03-01T08:11:22.772Z,3.77
2023-03-01T08:14:07.839Z,3.79
2023-03-01T08:16:53.256Z,3.83
2023-03-01T08:19:39.011Z,3.97
2023-03-01T08:22:24.486Z,4.13
2023-03-01T08:25:10.637Z,4.28
2023-03-01T08:27:56.083Z,4.41
2023-03-01T08:30:41.383Z,4.57
2023-03-01T08:33:27.309Z,4.73
2023-03-01T08:36:12.575Z,4.86
2023-03-01T08:38:58.727Z,5.03
2023-03-01T08:41:44.657Z,5.16
2023-03-01T08:44:31.172Z,5.28
2023-03-01T08:47:16.401Z,5.43
2023-03-01T08:50:01.888Z,5.54
2023-03-01T08:52:47.297Z,5.57
2023-03-01T08:55:32.500Z,5.59
2023-03-01T08:58:18.200Z,5.59
2023-03-01T09:01:11.347Z,5.93
2023-03-01T09:03:59.014Z,7.30
2023-03-01T09:06:44.466Z,7.78
2023-03-01T09:09:29.774Z,8.14
2023-03-01T09:12:15.239Z,8.86
2023-03-01T09:15:00.940Z,9.36
2023-03-01T09:17:46.027Z,9.33
2023-03-01T09:20:32.578Z,8.62
2023-03-01T09:23:17.856Z,8.13
2023-03-01T09:26:04.153Z,8.19
2023-03-01T09:28:51.679Z,8.73
2023-03-01T09:31:44.264Z,8.51
2023-03-01T09:34:29.381Z,7.94
2023-03-01T09:37:15.880Z,7.53
2023-03-01T09:40:01.483Z,7.13
2023-03-01T09:42:53.194Z,7.13
2023-03-01T09:45:45.098Z,7.22
2023-03-01T09:48:38.396Z,7.34
2023-03-01T09:51:30.572Z,7.22
2023-03-01T09:54:15.674Z,7.08
2023-03-01T09:57:12.457Z,7.10
2023-03-01T10:00:22.285Z,7.07
2023-03-01T10:03:31.972Z,7.21
2023-03-01T10:06:34.967Z,7.49
2023-03-01T10:09:22.422Z,7.40
2023-03-01T10:12:12.476Z,7.19
2023-03-01T10:15:15.278Z,7.14
2023-03-01T10:18:15.334Z,7.46
2023-03-01T10:21:09.134Z,7.40
2023-03-01T10:23:54.910Z,7.54
2023-03-01T10:26:54.769Z,7.53
2023-03-01T10:30:04.016Z,7.54
2023-03-01T10:32:52.426Z,7.63
2023-03-01T10:35:38.130Z,7.67
2023-03-01T10:38:23.640Z,7.75
2023-03-01T10:41:09.392Z,7.74
2023-03-01T10:44:01.245Z,7.69
2023-03-01T10:46:46.418Z,7.66
2023-03-01T10:49:32.577Z,7.67
2023-03-01T10:52:23.476Z,7.81
2023-03-01T10:55:28.821Z,8.07
2023-03-01T10:58:21.624Z,8.26
2023-03-01T11:01:26.955Z,8.29
2023-03-01T11:04:14.538Z,8.28
2023-03-01T11:07:01.802Z,8.31
2023-03-01T11:09:46.959Z,8.48
2023-03-01T11:12:33.564Z,8.61
2023-03-01T11:15:28.309Z,8.72
2023-03-01T11:18:26.611Z,8.87
2023-03-01T11:21:17.426Z,9.06
2023-03-01T11:24:04.125Z,9.08
2023-03-01T11:26:54.897Z,8.80
2023-03-01T11:29:48.721Z,8.71
2023-03-01T11:32:44.138Z,8.80
2023-03-01T11:35:30.517Z,8.85
2023-03-01T11:38:23.552Z,8.82
2023-03-01T11:41:22.756Z,8.78
2023-03-01T11:44:42.768Z,9.02
2023-03-01T11:47:43.659Z,9.36
2023-03-01T11:50:49.518Z,9.47
2023-03-01T11:54:18.975Z,9.38
2023-03-01T11:57:42.818Z,9.19
2023-03-01T12:01:02.881Z,9.11
2023-03-01T12:04:13.937Z,8.92
2023-03-01T12:07:13.434Z,8.85
2023-03-01T12:10:22.477Z,8.88
2023-03-01T12:13:23.171Z,8.86
2023-03-01T12:16:39.104Z,8.80
2023-03-01T12:19:36.590Z,8.86
2023-03-01T12:22:36.790Z,9.03
2023-03-01T12:25:59.238Z,8.98
2023-03-01T12:28:53.029Z,9.13
2023-03-01T12:31:50.013Z,9.34
2023-03-01T12:34:54.680Z,9.51
2023-03-01T12:37:55.378Z,9.66
2023-03-01T12:41:09.066Z,9.69
2023-03-01T12:43:57.242Z,9.78
2023-03-01T12:47:13.484Z,9.73
2023-03-01T12:50:12.371Z,9.50
2023-03-01T12:52:58.743Z,9.18
2023-03-01T12:55:44.239Z,9.07
2023-03-01T12:58:49.822Z,8.92
2023-03-01T13:01:58.471Z,8.82
2023-03-01T13:05:07.460Z,8.81
2023-03-01T13:08:03.192Z,8.92
2023-03-01T13:10:59.471Z,9.02
2023-03-01T13:13:44.865Z,9.08
2023-03-01T13:16:30.535Z,8.88
2023-03-01T13:19:22.436Z,8.81
2023-03-01T13:22:30.290Z,8.73
2023-03-01T13:25:19.379Z,8.77
2023-03-01T13:28:38.489Z,8.83
2023-03-01T13:31:26.949Z,8.95
2023-03-01T13:34:42.787Z,8.89
2023-03-01T13:37:31.558Z,8.94
2023-03-01T13:40:17.655Z,8.99
2023-03-01T13:43:32.372Z,8.95
2023-03-01T13:46:22.617Z,8.76
2023-03-01T13:49:15.564Z,8.55
2023-03-01T13:52:02.622Z,8.48
2023-03-01T13:54:47.899Z,8.49
2023-03-01T13:57:40.170Z,8.50
2023-03-01T14:00:33.347Z,8.43
2023-03-01T14:03:20.733Z,8.44
2023-03-01T14:06:16.332Z,8.45
2023-03-01T14:09:07.460Z,8.57
2023-03-01T14:11:58.555Z,8.64
2023-03-01T14:15:01.184Z,8.73
2023-03-01T14:18:08.310Z,8.78
2023-03-01T14:20:53.792Z,8.73
2023-03-01T14:23:42.991Z,8.64
2023-03-01T14:26:28.561Z,8.59
2023-03-01T14:29:27.943Z,8.57
2023-03-01T14:32:18.651Z,8.53
2023-03-01T14:35:04.741Z,8.50
2023-03-01T14:37:50.739Z,8.46
2023-03-01T14:40:37.817Z,8.42
2023-03-01T14:43:27.102Z,8.41
2023-03-01T14:46:24.925Z,8.37
2023-03-01T14:49:18.035Z,8.33
2023-03-01T14:52:07.124Z,8.28
2023-03-01T14:54:54.596Z,8.33
2023-03-01T14:57:44.692Z,8.28
2023-03-01T15:00:32.880Z,8.23
2023-03-01T15:03:28.582Z,8.20
2023-03-01T15:06:18.815Z,8.19
2023-03-01T15:09:04.804Z,8.18
2023-03-01T15:11:50.060Z,8.18
2023-03-01T15:14:49.479Z,8.16
2023-03-01T15:17:40.106Z,8.18
2023-03-01T15:20:30.149Z,8.20
2023-03-01T15:23:31.114Z,8.17
2023-03-01T15:26:30.528Z,8.21
2023-03-01T15:29:19.743Z,8.17
2023-03-01T15:32:23.714Z,8.15
2023-03-01T15:35:40.205Z,8.14
2023-03-01T15:38:30.498Z,8.11
2023-03-01T15:41:26.707Z,8.09
2023-03-01T15:44:30.005Z,8.04
2023-03-01T15:47:31.906Z,7.96
2023-03-01T15:50:22.483Z,7.92
2023-03-01T15:53:13.669Z,7.89
2023-03-01T15:55:58.905Z,7.88
2023-03-01T15:58:44.482Z,7.87
2023-03-01T16:01:30.655Z,7.82
2023-03-01T16:04:21.806Z,7.79
2023-03-01T16:07:07.228Z,7.76
2023-03-01T16:09:52.904Z,7.74
2023-03-01T16:12:40.038Z,7.72
2023-03-01T16:15:33.075Z,7.70
2023-03-01T16:18:18.829Z,7.69
2023-03-01T16:21:04.316Z,7.67
2023-03-01T16:23:51.115Z,7.64
2023-03-01T16:26:38.633Z,7.59
2023-03-01T16:29:24.242Z,7.56
2023-03-01T16:32:09.416Z,7.55
2023-03-01T16:34:54.653Z,7.50
2023-03-01T16:37:40.819Z,7.49
2023-03-01T16:40:29.057Z,7.43
2023-03-01T16:43:14.457Z,7.40
2023-03-01T16:45:59.931Z,7.34
2023-03-01T16:48:46.059Z,7.31
2023-03-01T16:51:32.015Z,7.29
2023-03-01T16:54:17.418Z,7.24
2023-03-01T16:57:03.152Z,7.24
2023-03-01T16:59:53.963Z,7.22
2023-03-01T17:02:41.745Z,7.19
2023-03-01T17:05:26.886Z,7.13
2023-03-01T17:08:12.194Z,7.12
2023-03-01T17:11:07.044Z,7.09
2023-03-01T17:13:52.571Z,7.07
2023-03-01T17:16:38.044Z,7.05
2023-03-01T17:19:23.702Z,7.01
2023-03-01T17:22:09.042Z,7.00
2023-03-01T17:24:54.814Z,6.97
2023-03-01T17:27:41.206Z,6.93
2023-03-01T17:30:26.679Z,6.90
2023-03-01T17:33:12.212Z,6.89
2023-03-01T17:35:58.241Z,6.88
2023-03-01T17:38:43.832Z,6.82
2023-03-01T17:41:29.410Z,6.79
2023-03-01T17:44:14.653Z,6.74
2023-03-01T17:47:00.688Z,6.69
2023-03-01T17:49:45.968Z,6.66
2023-03-01T17:52:31.546Z,6.63
2023-03-01T17:55:17.384Z,6.61
2023-03-01T17:58:03.102Z,6.58
2023-03-01T18:00:50.571Z,6.58
2023-03-01T18:03:35.962Z,6.54
2023-03-01T18:06:24.014Z,6.52
2023-03-01T18:09:09.679Z,6.48
2023-03-01T18:11:54.712Z,6.44
2023-03-01T18:14:40.179Z,6.39
2023-03-01T18:17:25.754Z,6.36
2023-03-01T18:20:13.078Z,6.36
2023-03-01T18:22:58.426Z,6.39
2023-03-01T18:25:43.883Z,6.36
2023-03-01T18:28:30.524Z,6.33
2023-03-01T18:31:21.668Z,6.30
2023-03-01T18:34:07.169Z,6.25
2023-03-01T18:37:08.081Z,6.22
2023-03-01T18:39:54.567Z,6.20
2023-03-01T18:42:39.649Z,6.15
